In Rescue
 
Open Full Screen Window  High Contrast Mode
July 25, 2021 9:22 AM EDT
Weather Information
Wind Direction
  ---
Wind Speed
  00 kt (0 mph)
Wind Gust
  00 kt (0 mph)
Altimeter
29.92 in
Visibility
10 SM
Temperature
22° C
72° F
Dewpoint
17° C
63° F
Humidity
73%
Sky Condition
Clear
VFR

METAR KCAD 251322Z AUTO 00000KT 10SM CLR 22/17 A2992 RMK AO2 T02170172

FAA Disclaimer: The data displayed is for advisory purposes only and is not to be used for flight planning or operations.